Main page
METAR-TAF:

METAR-TAF

Airports :

Penang International Airport

Penang, Malaysia

latitude: 05-18N, longitude: 100-16E, elevation: 3 m

Current weather observation

The report was made 42 minutes ago, at 05:30 UTC
Wind 8 kt from the East, varying between Northeast and East/Southeast
Temperature 33°C
Humidity 49%
Pressure 1009 hPa
Visibility 10 km or more
Few clouds at a height of 2000 ft

METAR: WMKP 270530Z 08008KT 040V110 9999 FEW020 33/21 Q1009 NOSIG

Time: 14:12 (06:12 UTC)

Forecast

The report was made 1 hour and 12 minutes ago, at 05:00 UTC
Forecast valid from 27 at 06 UTC to 28 at 06 UTC
Wind 8 kt from the West
Visibility 10 km or more
Few clouds at a height of 2000 ft
Becoming
from 27 at 12 UTC to 27 at 14 UTC
Wind 3 kt from variable directions
Visibility: 9000 m
Few clouds at a height of 2500 ft
Becoming
from 28 at 00 UTC to 28 at 02 UTC
Wind 5 kt from the Northeast
Few clouds at a height of 2000 ft

TAF: WMKP 270500Z 2706/2806 26008KT 9999 FEW020 BECMG 2712/2714 VRB03KT 9000 FEW025 BECMG 2800/2802 04005KT FEW020

Weather observations and forecasts of more than 4000 airports (METAR and TAF reports).

The available stations are represented by yellow and red dots on the map.

Hover mouse over dot to see the name of the station.

Then click to see weather observations and forecasts.

To change the map : click on the green buttons with a black cross to zoom in, on the green button with a dash to zoom out, or on the green arrows for adjacent maps.


METAR-TAF: